Terminal Aerodrome Forecast
Issued by NWS Amarillo, TX

Home | Current Version | Previous Version | Text Only | Print | Product List | Glossary On
Versions: 1 2 3 4 5 6 7 8 9 10 11 12 13 14 15 16 17
000
FTUS44 KAMA 302000 AAC
TAFDHT
TAF AMD
KDHT 302032Z 3021/3118 20010KT P6SM SCT025 OVC040
      TEMPO 3021/3023 5SM -RA BKN025
     FM310000 18010KT 3SM -RASN BR OVC006
     FM310300 18010KT 1SM -SN BR OVC002=

USA.gov is the U.S. government's official web portal to all federal, state and local government web resources and services.